createdAt,value
2018-11-10T00:00:20.797Z,11.60
2018-11-10T00:02:50.815Z,11.60
2018-11-10T00:05:21.027Z,11.70
2018-11-10T00:07:50.272Z,11.60
2018-11-10T00:10:20.020Z,11.60
2018-11-10T00:12:49.440Z,11.60
2018-11-10T00:15:18.575Z,11.60
2018-11-10T00:17:47.659Z,11.60
2018-11-10T00:20:17.478Z,11.60
2018-11-10T00:22:47.309Z,11.60
2018-11-10T00:25:17.117Z,11.60
2018-11-10T00:27:46.884Z,11.70
2018-11-10T00:30:18.435Z,11.70
2018-11-10T00:32:48.159Z,11.80
2018-11-10T00:35:18.707Z,11.90
2018-11-10T00:37:47.911Z,12.00
2018-11-10T00:40:17.479Z,12.00
2018-11-10T00:42:46.789Z,12.10
2018-11-10T00:45:15.954Z,12.10
2018-11-10T00:47:45.097Z,12.10
2018-11-10T00:50:14.430Z,12.00
2018-11-10T00:52:43.489Z,12.10
2018-11-10T00:55:12.637Z,12.10
2018-11-10T00:57:41.862Z,12.10
2018-11-10T01:00:13.096Z,12.00
2018-11-10T01:02:44.678Z,12.00
2018-11-10T01:05:13.897Z,11.90
2018-11-10T01:07:44.082Z,11.90
2018-11-10T01:10:14.004Z,12.00
2018-11-10T01:12:44.650Z,12.10
2018-11-10T01:15:16.466Z,12.10
2018-11-10T01:17:47.160Z,12.10
2018-11-10T01:20:16.389Z,12.10
2018-11-10T01:22:46.135Z,12.10
2018-11-10T01:25:15.541Z,12.10
2018-11-10T01:27:44.802Z,12.10
2018-11-10T01:30:15.971Z,12.10
2018-11-10T01:32:46.769Z,12.10
2018-11-10T01:35:16.114Z,12.10
2018-11-10T01:37:47.749Z,12.10
2018-11-10T01:40:16.798Z,12.10
2018-11-10T01:42:46.068Z,12.10
2018-11-10T01:45:16.802Z,12.10
2018-11-10T01:47:46.820Z,12.10
2018-11-10T01:50:16.871Z,12.10
2018-11-10T01:52:46.024Z,12.10
2018-11-10T01:55:15.672Z,12.10
2018-11-10T01:57:47.705Z,12.10
2018-11-10T02:00:19.316Z,12.10
2018-11-10T02:02:48.874Z,12.20
2018-11-10T02:05:18.528Z,12.20
2018-11-10T02:07:47.568Z,12.20
2018-11-10T02:10:16.631Z,12.20
2018-11-10T02:12:45.761Z,12.20
2018-11-10T02:15:16.864Z,12.20
2018-11-10T02:17:46.805Z,12.20
2018-11-10T02:20:17.439Z,12.20
2018-11-10T02:22:47.482Z,12.20
2018-11-10T02:25:17.936Z,12.20
2018-11-10T02:27:47.125Z,12.20
2018-11-10T02:30:17.162Z,12.10
2018-11-10T02:32:46.357Z,12.20
2018-11-10T02:35:15.488Z,12.20
2018-11-10T02:37:44.604Z,12.20
2018-11-10T02:40:14.943Z,12.20
2018-11-10T02:42:46.784Z,12.30
2018-11-10T02:45:16.073Z,12.30
2018-11-10T02:47:45.594Z,12.40
2018-11-10T02:50:14.625Z,12.40
2018-11-10T02:52:43.706Z,12.40
2018-11-10T02:55:12.756Z,12.40
2018-11-10T02:57:42.483Z,12.40
2018-11-10T03:00:13.031Z,12.40
2018-11-10T03:02:42.198Z,12.40
2018-11-10T03:05:11.822Z,12.50
2018-11-10T03:07:41.004Z,12.50
2018-11-10T03:10:11.234Z,12.50
2018-11-10T03:12:41.475Z,12.50
2018-11-10T03:15:11.792Z,12.50
2018-11-10T03:17:40.827Z,12.40
2018-11-10T03:20:13.255Z,12.40
2018-11-10T03:22:42.979Z,12.40
2018-11-10T03:25:13.567Z,12.40
2018-11-10T03:27:42.674Z,12.40
2018-11-10T03:30:12.279Z,12.40
2018-11-10T03:32:42.966Z,12.40
2018-11-10T03:35:13.558Z,12.40
2018-11-10T03:37:42.613Z,12.50
2018-11-10T03:40:12.574Z,12.50
2018-11-10T03:42:41.650Z,12.50
2018-11-10T03:45:11.999Z,12.50
2018-11-10T03:47:41.641Z,12.50
2018-11-10T03:50:11.601Z,12.50
2018-11-10T03:52:41.452Z,12.40
2018-11-10T03:55:10.880Z,12.40
2018-11-10T03:57:41.590Z,12.40
2018-11-10T04:00:17.835Z,12.40
2018-11-10T04:02:47.137Z,12.40
2018-11-10T04:05:17.251Z,12.40
2018-11-10T04:07:46.574Z,12.40
2018-11-10T04:10:17.593Z,12.40
2018-11-10T04:12:46.892Z,12.30
2018-11-10T04:15:15.999Z,12.20
2018-11-10T04:17:45.319Z,12.10
2018-11-10T04:20:14.452Z,12.00
2018-11-10T04:22:43.698Z,12.00
2018-11-10T04:25:13.609Z,11.90
2018-11-10T04:27:42.748Z,11.90
2018-11-10T04:30:12.211Z,11.80
2018-11-10T04:32:44.244Z,11.80
2018-11-10T04:35:14.429Z,11.80
2018-11-10T04:37:43.542Z,11.80
2018-11-10T04:40:13.934Z,11.80
2018-11-10T04:42:43.015Z,11.70
2018-11-10T04:45:13.149Z,11.70
2018-11-10T04:47:43.480Z,11.70
2018-11-10T04:50:13.011Z,11.70
2018-11-10T04:52:42.375Z,11.60
2018-11-10T04:55:12.396Z,11.60
2018-11-10T04:57:42.204Z,11.60
2018-11-10T05:00:14.791Z,11.60
2018-11-10T05:02:45.209Z,11.60
2018-11-10T05:05:14.510Z,11.60
2018-11-10T05:07:43.640Z,11.50
2018-11-10T05:10:13.579Z,11.50
2018-11-10T05:12:44.390Z,11.50
2018-11-10T05:15:14.586Z,11.50
2018-11-10T05:17:43.795Z,11.50
2018-11-10T05:20:13.007Z,11.60
2018-11-10T05:22:42.162Z,11.50
2018-11-10T05:25:11.883Z,11.50
2018-11-10T05:27:41.427Z,11.50
2018-11-10T05:30:10.995Z,11.50
2018-11-10T05:32:41.250Z,11.50
2018-11-10T05:35:10.386Z,11.50
2018-11-10T05:37:40.737Z,11.50
2018-11-10T05:40:11.170Z,11.50
2018-11-10T05:42:41.907Z,11.50
2018-11-10T05:45:11.570Z,11.50
2018-11-10T05:47:41.877Z,11.50
2018-11-10T05:50:11.753Z,11.50
2018-11-10T05:52:41.971Z,11.50
2018-11-10T05:55:11.071Z,11.60
2018-11-10T05:57:40.475Z,11.60
2018-11-10T06:00:12.307Z,11.60
2018-11-10T06:02:42.657Z,11.60
2018-11-10T06:05:12.600Z,11.60
2018-11-10T06:07:41.764Z,11.60
2018-11-10T06:10:12.079Z,11.60
2018-11-10T06:12:41.612Z,11.60
2018-11-10T06:15:12.183Z,11.60
2018-11-10T06:17:42.514Z,11.60
2018-11-10T06:20:12.904Z,11.70
2018-11-10T06:22:42.211Z,11.70
2018-11-10T06:25:12.056Z,11.70
2018-11-10T06:27:41.215Z,11.70
2018-11-10T06:30:11.532Z,11.80
2018-11-10T06:32:41.944Z,11.80
2018-11-10T06:35:11.470Z,11.90
2018-11-10T06:37:43.665Z,11.90
2018-11-10T06:40:14.163Z,11.90
2018-11-10T06:42:44.241Z,12.00
2018-11-10T06:45:13.407Z,12.00
2018-11-10T06:47:42.543Z,12.10
2018-11-10T06:50:12.490Z,12.10
2018-11-10T06:52:41.741Z,12.10
2018-11-10T06:55:11.583Z,12.10
2018-11-10T06:57:41.547Z,12.10
2018-11-10T07:00:13.082Z,12.10
2018-11-10T07:02:42.812Z,12.10
2018-11-10T07:05:12.767Z,12.20
2018-11-10T07:07:42.619Z,12.20
2018-11-10T07:10:12.411Z,12.20
2018-11-10T07:12:41.783Z,12.40
2018-11-10T07:15:11.321Z,12.40
2018-11-10T07:17:42.084Z,12.40
2018-11-10T07:20:11.671Z,12.50
2018-11-10T07:22:40.781Z,12.50
2018-11-10T07:25:11.327Z,12.50
2018-11-10T07:27:40.688Z,12.60
2018-11-10T07:30:12.714Z,12.60
2018-11-10T07:32:42.887Z,12.60
2018-11-10T07:35:13.970Z,12.60
2018-11-10T07:37:43.844Z,12.60
2018-11-10T07:40:13.594Z,12.60
2018-11-10T07:42:42.762Z,12.70
2018-11-10T07:45:15.132Z,12.60
2018-11-10T07:47:45.029Z,12.60
2018-11-10T07:50:14.943Z,12.70
2018-11-10T07:52:44.129Z,12.60
2018-11-10T07:55:14.778Z,12.60
2018-11-10T07:57:44.216Z,12.70
2018-11-10T08:00:15.809Z,12.70
2018-11-10T08:02:45.153Z,12.70
2018-11-10T08:05:14.841Z,12.70
2018-11-10T08:07:44.991Z,12.80
2018-11-10T08:10:14.891Z,12.80
2018-11-10T08:12:44.057Z,12.80
2018-11-10T08:15:16.459Z,12.80
2018-11-10T08:17:45.714Z,12.80
2018-11-10T08:20:15.088Z,12.90
2018-11-10T08:22:44.481Z,12.90
2018-11-10T08:25:14.640Z,12.90
2018-11-10T08:27:43.983Z,12.90
2018-11-10T08:30:14.232Z,12.90
2018-11-10T08:32:44.113Z,13.00
2018-11-10T08:35:14.055Z,12.90
2018-11-10T08:37:43.367Z,13.00
2018-11-10T08:40:14.414Z,13.00
2018-11-10T08:42:43.556Z,13.00
2018-11-10T08:45:14.320Z,13.00
2018-11-10T08:47:44.327Z,13.00
2018-11-10T08:50:14.860Z,13.10
2018-11-10T08:52:44.080Z,13.10
2018-11-10T08:55:14.296Z,13.20
2018-11-10T08:57:44.189Z,13.20
2018-11-10T09:00:13.507Z,13.20
2018-11-10T09:02:42.661Z,13.30
2018-11-10T09:05:12.409Z,13.30
2018-11-10T09:07:42.126Z,13.40
2018-11-10T09:10:13.160Z,13.40
2018-11-10T09:12:42.384Z,13.50
2018-11-10T09:15:13.348Z,13.50
2018-11-10T09:17:43.374Z,13.50
2018-11-10T09:20:15.715Z,13.60
2018-11-10T09:22:45.221Z,13.60
2018-11-10T09:25:17.247Z,13.50
2018-11-10T09:27:46.468Z,13.50
2018-11-10T09:30:16.921Z,13.60
2018-11-10T09:32:46.063Z,13.60
2018-11-10T09:35:15.681Z,13.70
2018-11-10T09:37:44.758Z,13.80
2018-11-10T09:40:15.897Z,13.90
2018-11-10T09:42:46.667Z,13.90
2018-11-10T09:45:16.658Z,13.90
2018-11-10T09:47:45.828Z,13.90
2018-11-10T09:50:19.650Z,13.90
2018-11-10T09:52:48.832Z,13.80
2018-11-10T09:55:18.483Z,13.80
2018-11-10T09:57:47.645Z,13.80
2018-11-10T10:00:18.407Z,13.70
2018-11-10T10:02:48.212Z,13.70
2018-11-10T10:05:17.425Z,13.80
2018-11-10T10:07:46.622Z,13.80
2018-11-10T10:10:17.090Z,13.90
2018-11-10T10:12:46.759Z,13.90
2018-11-10T10:15:16.978Z,13.80
2018-11-10T10:17:47.541Z,13.90
2018-11-10T10:20:18.168Z,14.00
2018-11-10T10:22:48.054Z,14.00
2018-11-10T10:25:17.909Z,13.90
2018-11-10T10:27:48.093Z,13.90
2018-11-10T10:30:19.970Z,13.90
2018-11-10T10:32:49.695Z,13.90
2018-11-10T10:35:19.016Z,14.00
2018-11-10T10:37:49.374Z,14.00
2018-11-10T10:40:19.032Z,13.90
2018-11-10T10:42:48.995Z,13.90
2018-11-10T10:45:21.487Z,13.80
2018-11-10T10:47:50.626Z,13.80
2018-11-10T10:50:21.133Z,13.80
2018-11-10T10:52:50.201Z,13.80
2018-11-10T10:55:20.058Z,13.90
2018-11-10T10:57:50.491Z,13.90
2018-11-10T11:00:25.207Z,14.00
2018-11-10T11:03:02.681Z,13.90
2018-11-10T11:05:37.029Z,14.00
2018-11-10T11:08:06.654Z,13.90
2018-11-10T11:10:35.957Z,13.90
2018-11-10T11:13:06.392Z,13.90
2018-11-10T11:15:36.617Z,13.90
2018-11-10T11:18:06.233Z,13.90
2018-11-10T11:20:35.631Z,13.90
2018-11-10T11:23:05.023Z,14.00
2018-11-10T11:25:34.778Z,14.00
2018-11-10T11:28:03.945Z,14.10
2018-11-10T11:30:33.062Z,14.20
2018-11-10T11:33:02.225Z,14.30
2018-11-10T11:35:32.332Z,14.30
2018-11-10T11:38:01.464Z,14.30
2018-11-10T11:40:30.667Z,14.30
2018-11-10T11:42:59.780Z,14.40
2018-11-10T11:45:29.077Z,14.40
2018-11-10T11:47:58.602Z,14.40
2018-11-10T11:50:27.781Z,14.30
2018-11-10T11:52:56.953Z,14.20
2018-11-10T11:55:26.452Z,14.20
2018-11-10T11:57:56.026Z,14.10
2018-11-10T12:00:25.402Z,14.10
2018-11-10T12:02:54.716Z,14.00
2018-11-10T12:05:23.906Z,13.90
2018-11-10T12:07:53.083Z,13.80
2018-11-10T12:10:22.672Z,13.60
2018-11-10T12:12:51.767Z,13.50
2018-11-10T12:15:21.226Z,13.40
2018-11-10T12:17:50.293Z,13.40
2018-11-10T12:20:19.469Z,13.30
2018-11-10T12:22:48.863Z,13.30
2018-11-10T12:25:17.968Z,13.30
2018-11-10T12:27:47.809Z,13.30
2018-11-10T12:30:16.998Z,13.30
2018-11-10T12:32:46.146Z,13.20
2018-11-10T12:35:15.180Z,13.10
2018-11-10T12:37:45.270Z,13.00
2018-11-10T12:40:14.960Z,13.00
2018-11-10T12:42:51.119Z,13.00
2018-11-10T12:45:21.127Z,12.90
2018-11-10T12:47:50.740Z,12.90
2018-11-10T12:50:20.888Z,12.80
2018-11-10T12:52:50.042Z,12.80
2018-11-10T12:55:19.589Z,12.70
2018-11-10T12:57:48.778Z,12.70
2018-11-10T13:00:18.144Z,12.60
2018-11-10T13:02:48.023Z,12.60
2018-11-10T13:05:17.260Z,12.70
2018-11-10T13:07:47.522Z,12.60
2018-11-10T13:10:16.658Z,12.70
2018-11-10T13:12:45.954Z,12.60
2018-11-10T13:15:15.128Z,12.60
2018-11-10T13:17:44.260Z,12.60
2018-11-10T13:20:14.380Z,12.60
2018-11-10T13:22:43.429Z,12.50
2018-11-10T13:25:13.630Z,12.60
2018-11-10T13:27:42.908Z,12.60
2018-11-10T13:30:13.626Z,12.60
2018-11-10T13:32:44.273Z,12.60
2018-11-10T13:35:13.573Z,12.60
2018-11-10T13:37:42.771Z,12.70
2018-11-10T13:40:14.835Z,12.80
2018-11-10T13:42:44.437Z,12.80
2018-11-10T13:45:14.354Z,12.90
2018-11-10T13:47:44.622Z,13.00
2018-11-10T13:50:13.703Z,13.00
2018-11-10T13:52:43.502Z,13.10
2018-11-10T13:55:13.149Z,13.20
2018-11-10T13:57:42.292Z,13.10
2018-11-10T14:00:15.671Z,13.00
2018-11-10T14:02:45.078Z,13.10
2018-11-10T14:05:15.558Z,13.10
2018-11-10T14:07:44.626Z,13.20
2018-11-10T14:10:15.514Z,13.20
2018-11-10T14:12:46.048Z,13.30
2018-11-10T14:15:15.290Z,13.40
2018-11-10T14:17:44.789Z,13.30
2018-11-10T14:20:15.226Z,13.30
2018-11-10T14:22:45.372Z,13.30
2018-11-10T14:25:16.478Z,13.30
2018-11-10T14:27:45.982Z,13.40
2018-11-10T14:30:17.067Z,13.60
2018-11-10T14:32:46.816Z,13.60
2018-11-10T14:35:15.896Z,13.60
2018-11-10T14:37:45.720Z,13.50
2018-11-10T14:40:16.268Z,13.50
2018-11-10T14:42:45.787Z,13.40
2018-11-10T14:45:17.322Z,13.30
2018-11-10T14:47:46.837Z,13.20
2018-11-10T14:50:16.967Z,13.10
2018-11-10T14:52:46.262Z,13.10
2018-11-10T14:55:16.577Z,13.10
2018-11-10T14:57:45.743Z,13.00
2018-11-10T15:00:17.133Z,13.10
2018-11-10T15:02:46.320Z,13.00
2018-11-10T15:05:15.666Z,13.00
2018-11-10T15:07:45.557Z,12.90
2018-11-10T15:10:15.848Z,12.90
2018-11-10T15:12:45.353Z,12.90
2018-11-10T15:15:15.386Z,13.00
2018-11-10T15:17:44.971Z,13.00
2018-11-10T15:20:15.423Z,12.90
2018-11-10T15:22:44.594Z,12.90
2018-11-10T15:25:15.144Z,12.90
2018-11-10T15:27:44.760Z,12.90
2018-11-10T15:30:18.574Z,12.90
2018-11-10T15:32:48.268Z,12.90
2018-11-10T15:35:18.981Z,12.90
2018-11-10T15:37:49.373Z,12.90
2018-11-10T15:40:19.153Z,12.90
2018-11-10T15:42:48.341Z,12.90
2018-11-10T15:45:18.670Z,12.90
2018-11-10T15:47:47.844Z,12.90
2018-11-10T15:50:17.828Z,12.80
2018-11-10T15:52:47.151Z,12.80
2018-11-10T15:55:18.098Z,12.80
2018-11-10T15:57:48.094Z,12.80
2018-11-10T16:00:19.416Z,12.80
2018-11-10T16:02:48.553Z,12.80
2018-11-10T16:05:17.640Z,12.70
2018-11-10T16:07:46.958Z,12.70
2018-11-10T16:10:17.183Z,12.80
2018-11-10T16:12:46.634Z,12.70
2018-11-10T16:15:17.035Z,12.70
2018-11-10T16:17:46.220Z,12.70
2018-11-10T16:20:17.270Z,12.60
2018-11-10T16:22:47.965Z,12.60
2018-11-10T16:25:17.614Z,12.60
2018-11-10T16:27:46.959Z,12.60
2018-11-10T16:30:17.673Z,12.60
2018-11-10T16:32:47.899Z,12.60
2018-11-10T16:35:17.058Z,12.60
2018-11-10T16:37:46.200Z,12.60
2018-11-10T16:40:17.722Z,12.60
2018-11-10T16:42:47.554Z,12.60
2018-11-10T16:45:17.395Z,12.70
2018-11-10T16:47:46.877Z,13.00
2018-11-10T16:50:17.539Z,13.10
2018-11-10T16:52:47.344Z,13.10
2018-11-10T16:55:16.898Z,13.00
2018-11-10T16:57:46.149Z,12.90
2018-11-10T17:00:17.916Z,12.80
2018-11-10T17:02:47.411Z,12.70
2018-11-10T17:05:16.553Z,12.50
2018-11-10T17:07:45.751Z,12.40
2018-11-10T17:10:16.314Z,12.30
2018-11-10T17:12:45.762Z,12.20
2018-11-10T17:15:14.909Z,12.10
2018-11-10T17:17:44.108Z,12.00
2018-11-10T17:20:15.882Z,11.90
2018-11-10T17:22:46.579Z,11.90
2018-11-10T17:25:16.110Z,11.90
2018-11-10T17:27:47.157Z,11.90
2018-11-10T17:30:18.082Z,11.90
2018-11-10T17:32:47.124Z,11.90
2018-11-10T17:35:16.700Z,11.90
2018-11-10T17:37:46.047Z,11.90
2018-11-10T17:40:16.177Z,11.90
2018-11-10T17:42:47.128Z,11.80
2018-11-10T17:45:17.800Z,11.80
2018-11-10T17:47:47.086Z,11.80
2018-11-10T17:50:17.333Z,11.80
2018-11-10T17:52:47.200Z,11.80
2018-11-10T17:55:17.163Z,11.80
2018-11-10T17:57:46.777Z,11.70
2018-11-10T18:00:16.881Z,11.70
2018-11-10T18:02:46.165Z,11.70
2018-11-10T18:05:16.396Z,11.70
2018-11-10T18:07:45.783Z,11.70
2018-11-10T18:10:16.427Z,11.70
2018-11-10T18:12:46.610Z,11.70
2018-11-10T18:15:16.567Z,11.70
2018-11-10T18:17:45.889Z,11.70
2018-11-10T18:20:16.679Z,11.70
2018-11-10T18:22:47.029Z,11.70
2018-11-10T18:25:17.354Z,11.60
2018-11-10T18:27:46.517Z,11.60
2018-11-10T18:30:16.116Z,11.60
2018-11-10T18:32:45.460Z,11.60
2018-11-10T18:35:14.890Z,11.60
2018-11-10T18:37:44.181Z,11.60
2018-11-10T18:40:13.436Z,11.50
2018-11-10T18:42:43.850Z,11.50
2018-11-10T18:45:13.491Z,11.50
2018-11-10T18:47:43.007Z,11.60
2018-11-10T18:50:14.684Z,11.60
2018-11-10T18:52:44.341Z,11.70
2018-11-10T18:55:14.578Z,11.70
2018-11-10T18:57:44.128Z,11.80
2018-11-10T19:00:15.965Z,11.70
2018-11-10T19:02:51.801Z,11.70
2018-11-10T19:05:21.319Z,11.50
2018-11-10T19:07:50.661Z,11.40
2018-11-10T19:10:19.912Z,11.30
2018-11-10T19:12:49.977Z,11.30
2018-11-10T19:15:21.108Z,11.20
2018-11-10T19:17:51.191Z,11.10
2018-11-10T19:20:21.704Z,11.10
2018-11-10T19:22:51.281Z,11.20
2018-11-10T19:25:20.665Z,11.20
2018-11-10T19:27:49.730Z,11.10
2018-11-10T19:30:21.400Z,11.10
2018-11-10T19:32:52.158Z,11.20
2018-11-10T19:35:21.294Z,11.30
2018-11-10T19:37:50.550Z,11.30
2018-11-10T19:40:19.735Z,11.30
2018-11-10T19:42:49.154Z,11.40
2018-11-10T19:45:18.336Z,11.40
2018-11-10T19:47:47.930Z,11.50
2018-11-10T19:50:17.307Z,11.50
2018-11-10T19:52:46.653Z,11.50
2018-11-10T19:55:16.993Z,11.50
2018-11-10T19:57:47.310Z,11.40
2018-11-10T20:00:21.977Z,11.40
2018-11-10T20:02:51.290Z,11.40
2018-11-10T20:05:20.705Z,11.40
2018-11-10T20:07:50.041Z,11.50
2018-11-10T20:10:19.167Z,11.50
2018-11-10T20:12:48.821Z,11.40
2018-11-10T20:15:18.261Z,11.50
2018-11-10T20:17:48.360Z,11.50
2018-11-10T20:20:19.327Z,11.50
2018-11-10T20:22:48.459Z,11.50
2018-11-10T20:25:18.809Z,11.50
2018-11-10T20:27:48.084Z,11.60
2018-11-10T20:30:18.950Z,11.60
2018-11-10T20:32:50.238Z,11.70
2018-11-10T20:35:19.378Z,11.80
2018-11-10T20:37:48.803Z,11.80
2018-11-10T20:40:18.098Z,11.80
2018-11-10T20:42:48.271Z,11.80
2018-11-10T20:45:20.673Z,11.80
2018-11-10T20:47:50.123Z,11.70
2018-11-10T20:50:20.107Z,11.70
2018-11-10T20:52:50.369Z,11.60
2018-11-10T20:55:20.163Z,11.50
2018-11-10T20:57:50.569Z,11.50
2018-11-10T21:00:21.200Z,11.50
2018-11-10T21:02:51.384Z,11.40
2018-11-10T21:05:20.573Z,11.40
2018-11-10T21:07:49.838Z,11.40
2018-11-10T21:10:20.390Z,11.50
2018-11-10T21:12:51.171Z,11.50
2018-11-10T21:15:20.801Z,11.50
2018-11-10T21:17:50.894Z,11.60
2018-11-10T21:20:20.341Z,11.60
2018-11-10T21:22:50.082Z,11.70
2018-11-10T21:25:19.897Z,11.70
2018-11-10T21:27:49.129Z,11.70
2018-11-10T21:30:19.675Z,11.70
2018-11-10T21:32:50.090Z,11.80
2018-11-10T21:35:19.612Z,11.90
2018-11-10T21:37:54.439Z,11.90
2018-11-10T21:40:23.694Z,11.80
2018-11-10T21:42:53.014Z,11.70
2018-11-10T21:45:22.131Z,11.60
2018-11-10T21:47:52.987Z,11.50
2018-11-10T21:50:22.086Z,11.50
2018-11-10T21:52:51.866Z,11.50
2018-11-10T21:55:21.915Z,11.30
2018-11-10T21:57:51.125Z,11.30
2018-11-10T22:00:22.199Z,11.20
2018-11-10T22:02:51.872Z,11.10
2018-11-10T22:05:22.921Z,11.00
2018-11-10T22:07:52.187Z,11.00
2018-11-10T22:10:21.392Z,11.00
2018-11-10T22:12:50.490Z,11.00
2018-11-10T22:15:21.941Z,10.90
2018-11-10T22:17:51.275Z,10.90
2018-11-10T22:20:22.086Z,10.90
2018-11-10T22:22:58.404Z,10.90
2018-11-10T22:25:30.553Z,11.00
2018-11-10T22:27:59.724Z,11.00
2018-11-10T22:30:29.012Z,11.10
2018-11-10T22:32:58.284Z,11.20
2018-11-10T22:35:27.572Z,11.20
2018-11-10T22:37:56.711Z,11.30
2018-11-10T22:40:26.004Z,11.40
2018-11-10T22:42:55.469Z,11.30
2018-11-10T22:45:24.539Z,11.30
2018-11-10T22:47:54.015Z,11.30
2018-11-10T22:50:24.398Z,11.30
2018-11-10T22:52:54.054Z,11.30
2018-11-10T22:55:23.291Z,11.20
2018-11-10T22:57:52.840Z,11.30
2018-11-10T23:00:23.435Z,11.30
2018-11-10T23:02:53.869Z,11.40
2018-11-10T23:05:24.094Z,11.40
2018-11-10T23:07:53.386Z,11.40
2018-11-10T23:10:22.796Z,11.40
2018-11-10T23:12:52.827Z,11.40
2018-11-10T23:15:21.986Z,11.50
2018-11-10T23:17:52.118Z,11.40
2018-11-10T23:20:21.432Z,11.40
2018-11-10T23:22:50.650Z,11.40
2018-11-10T23:25:19.945Z,11.50
2018-11-10T23:27:49.643Z,11.50
2018-11-10T23:30:22.234Z,11.50
2018-11-10T23:32:51.384Z,11.50
2018-11-10T23:35:20.966Z,11.60
2018-11-10T23:37:50.008Z,11.60
2018-11-10T23:40:19.376Z,11.60
2018-11-10T23:42:48.448Z,11.60
2018-11-10T23:45:17.699Z,11.60
2018-11-10T23:47:47.589Z,11.60
2018-11-10T23:50:20.342Z,11.60
2018-11-10T23:52:49.457Z,11.50
2018-11-10T23:55:18.924Z,11.50
2018-11-10T23:57:48.147Z,11.50
